sensor_id;sensor_type;location;lat;lon;timestamp;P1;durP1;ratioP1;P2;durP2;ratioP2
74457;SDS011;62896;51.032;3.712;2023-05-14T00:03:11;58.6;;;31.8;;
74457;SDS011;62896;51.032;3.712;2023-05-14T00:06:31;58.6;;;31.8;;
74457;SDS011;62896;51.032;3.712;2023-05-14T00:09:51;58.6;;;31.8;;
74457;SDS011;62896;51.032;3.712;2023-05-14T00:13:11;58.6;;;31.8;;
74457;SDS011;62896;51.032;3.712;2023-05-14T00:16:31;58.6;;;31.8;;
74457;SDS011;62896;51.032;3.712;2023-05-14T00:19:51;58.6;;;31.8;;
74457;SDS011;62896;51.032;3.712;2023-05-14T00:23:11;58.6;;;31.8;;
74457;SDS011;62896;51.032;3.712;2023-05-14T00:26:31;51.2;;;31.4;;
74457;SDS011;62896;51.032;3.712;2023-05-14T00:29:51;51.2;;;31.4;;
74457;SDS011;62896;51.032;3.712;2023-05-14T00:33:11;51.2;;;31.4;;
74457;SDS011;62896;51.032;3.712;2023-05-14T00:36:31;51.2;;;31.4;;
74457;SDS011;62896;51.032;3.712;2023-05-14T00:39:51;51.2;;;31.4;;
74457;SDS011;62896;51.032;3.712;2023-05-14T00:43:11;51.2;;;31.4;;
74457;SDS011;62896;51.032;3.712;2023-05-14T00:46:31;51.2;;;31.4;;
74457;SDS011;62896;51.032;3.712;2023-05-14T00:49:51;51.2;;;31.4;;
74457;SDS011;62896;51.032;3.712;2023-05-14T00:53:11;57.8;;;33.3;;
74457;SDS011;62896;51.032;3.712;2023-05-14T00:56:31;57.8;;;33.3;;
74457;SDS011;62896;51.032;3.712;2023-05-14T00:59:51;57.8;;;33.3;;
74457;SDS011;62896;51.032;3.712;2023-05-14T01:03:11;57.8;;;33.3;;
74457;SDS011;62896;51.032;3.712;2023-05-14T01:06:33;57.8;;;33.3;;
74457;SDS011;62896;51.032;3.712;2023-05-14T01:09:52;57.8;;;33.3;;
74457;SDS011;62896;51.032;3.712;2023-05-14T01:13:12;57.8;;;33.3;;
74457;SDS011;62896;51.032;3.712;2023-05-14T01:16:32;53.3;;;31.2;;
74457;SDS011;62896;51.032;3.712;2023-05-14T01:19:51;53.3;;;31.2;;
74457;SDS011;62896;51.032;3.712;2023-05-14T01:23:11;53.3;;;31.2;;
74457;SDS011;62896;51.032;3.712;2023-05-14T01:26:31;53.3;;;31.2;;
74457;SDS011;62896;51.032;3.712;2023-05-14T01:29:52;53.3;;;31.2;;
74457;SDS011;62896;51.032;3.712;2023-05-14T01:33:12;53.3;;;31.2;;
74457;SDS011;62896;51.032;3.712;2023-05-14T01:36:31;53.3;;;31.2;;
74457;SDS011;62896;51.032;3.712;2023-05-14T01:39:51;53.3;;;31.2;;
74457;SDS011;62896;51.032;3.712;2023-05-14T01:43:11;53.9;;;31.9;;
74457;SDS011;62896;51.032;3.712;2023-05-14T01:46:31;53.9;;;31.9;;
74457;SDS011;62896;51.032;3.712;2023-05-14T01:49:51;53.9;;;31.9;;
74457;SDS011;62896;51.032;3.712;2023-05-14T01:53:11;53.9;;;31.9;;
74457;SDS011;62896;51.032;3.712;2023-05-14T01:56:31;53.9;;;31.9;;
74457;SDS011;62896;51.032;3.712;2023-05-14T01:59:51;53.9;;;31.9;;
74457;SDS011;62896;51.032;3.712;2023-05-14T02:03:11;53.9;;;31.9;;
74457;SDS011;62896;51.032;3.712;2023-05-14T02:06:31;58.4;;;29.9;;
74457;SDS011;62896;51.032;3.712;2023-05-14T02:09:51;58.4;;;29.9;;
74457;SDS011;62896;51.032;3.712;2023-05-14T02:13:11;58.4;;;29.9;;
74457;SDS011;62896;51.032;3.712;2023-05-14T02:16:31;58.4;;;29.9;;
74457;SDS011;62896;51.032;3.712;2023-05-14T02:19:51;58.4;;;29.9;;
74457;SDS011;62896;51.032;3.712;2023-05-14T02:23:11;58.4;;;29.9;;
74457;SDS011;62896;51.032;3.712;2023-05-14T02:26:31;58.4;;;29.9;;
74457;SDS011;62896;51.032;3.712;2023-05-14T02:29:51;58.4;;;29.9;;
74457;SDS011;62896;51.032;3.712;2023-05-14T02:33:11;57.3;;;31.4;;
74457;SDS011;62896;51.032;3.712;2023-05-14T02:36:31;57.3;;;31.4;;
74457;SDS011;62896;51.032;3.712;2023-05-14T02:39:51;57.3;;;31.4;;
74457;SDS011;62896;51.032;3.712;2023-05-14T02:43:11;57.3;;;31.4;;
74457;SDS011;62896;51.032;3.712;2023-05-14T02:46:31;57.3;;;31.4;;
74457;SDS011;62896;51.032;3.712;2023-05-14T02:49:51;57.3;;;31.4;;
74457;SDS011;62896;51.032;3.712;2023-05-14T02:53:11;57.3;;;31.4;;
74457;SDS011;62896;51.032;3.712;2023-05-14T02:56:31;51.9;;;30.2;;
74457;SDS011;62896;51.032;3.712;2023-05-14T02:59:51;51.9;;;30.2;;
74457;SDS011;62896;51.032;3.712;2023-05-14T03:03:11;51.9;;;30.2;;
74457;SDS011;62896;51.032;3.712;2023-05-14T03:06:31;51.9;;;30.2;;
74457;SDS011;62896;51.032;3.712;2023-05-14T03:09:51;51.9;;;30.2;;
74457;SDS011;62896;51.032;3.712;2023-05-14T03:13:11;51.9;;;30.2;;
74457;SDS011;62896;51.032;3.712;2023-05-14T03:16:31;51.9;;;30.2;;
74457;SDS011;62896;51.032;3.712;2023-05-14T03:19:51;51.9;;;30.2;;
74457;SDS011;62896;51.032;3.712;2023-05-14T03:23:11;56.7;;;32.5;;
74457;SDS011;62896;51.032;3.712;2023-05-14T03:26:31;56.7;;;32.5;;
74457;SDS011;62896;51.032;3.712;2023-05-14T03:29:51;56.7;;;32.5;;
74457;SDS011;62896;51.032;3.712;2023-05-14T03:33:11;56.7;;;32.5;;
74457;SDS011;62896;51.032;3.712;2023-05-14T03:36:31;56.7;;;32.5;;
74457;SDS011;62896;51.032;3.712;2023-05-14T03:39:51;56.7;;;32.5;;
74457;SDS011;62896;51.032;3.712;2023-05-14T03:43:11;56.7;;;32.5;;
74457;SDS011;62896;51.032;3.712;2023-05-14T03:46:31;50.9;;;30.7;;
74457;SDS011;62896;51.032;3.712;2023-05-14T03:49:51;50.9;;;30.7;;
74457;SDS011;62896;51.032;3.712;2023-05-14T03:53:11;50.9;;;30.7;;
74457;SDS011;62896;51.032;3.712;2023-05-14T03:56:31;50.9;;;30.7;;
74457;SDS011;62896;51.032;3.712;2023-05-14T03:59:51;50.9;;;30.7;;
74457;SDS011;62896;51.032;3.712;2023-05-14T04:03:11;50.9;;;30.7;;
74457;SDS011;62896;51.032;3.712;2023-05-14T04:06:31;50.9;;;30.7;;
74457;SDS011;62896;51.032;3.712;2023-05-14T04:09:51;50.9;;;30.7;;
74457;SDS011;62896;51.032;3.712;2023-05-14T04:13:11;57.8;;;34.7;;
74457;SDS011;62896;51.032;3.712;2023-05-14T04:16:31;57.8;;;34.7;;
74457;SDS011;62896;51.032;3.712;2023-05-14T04:19:51;57.8;;;34.7;;
74457;SDS011;62896;51.032;3.712;2023-05-14T04:23:11;57.8;;;34.7;;
74457;SDS011;62896;51.032;3.712;2023-05-14T04:26:31;57.8;;;34.7;;
74457;SDS011;62896;51.032;3.712;2023-05-14T04:29:51;57.8;;;34.7;;
74457;SDS011;62896;51.032;3.712;2023-05-14T04:33:11;57.8;;;34.7;;
74457;SDS011;62896;51.032;3.712;2023-05-14T04:36:31;65.3;;;37.2;;
74457;SDS011;62896;51.032;3.712;2023-05-14T04:39:51;65.3;;;37.2;;
74457;SDS011;62896;51.032;3.712;2023-05-14T04:43:11;65.3;;;37.2;;
74457;SDS011;62896;51.032;3.712;2023-05-14T04:46:31;65.3;;;37.2;;
74457;SDS011;62896;51.032;3.712;2023-05-14T04:49:51;65.3;;;37.2;;
74457;SDS011;62896;51.032;3.712;2023-05-14T04:53:11;65.3;;;37.2;;
74457;SDS011;62896;51.032;3.712;2023-05-14T04:56:31;65.3;;;37.2;;
74457;SDS011;62896;51.032;3.712;2023-05-14T04:59:51;65.3;;;37.2;;
74457;SDS011;62896;51.032;3.712;2023-05-14T05:03:11;53.3;;;34;;
74457;SDS011;62896;51.032;3.712;2023-05-14T05:06:31;53.3;;;34;;
74457;SDS011;62896;51.032;3.712;2023-05-14T05:09:51;53.3;;;34;;
74457;SDS011;62896;51.032;3.712;2023-05-14T05:13:11;53.3;;;34;;
74457;SDS011;62896;51.032;3.712;2023-05-14T05:16:31;53.3;;;34;;
74457;SDS011;62896;51.032;3.712;2023-05-14T05:19:51;53.3;;;34;;
74457;SDS011;62896;51.032;3.712;2023-05-14T05:23:11;53.3;;;34;;
74457;SDS011;62896;51.032;3.712;2023-05-14T05:26:31;56;;;33;;
74457;SDS011;62896;51.032;3.712;2023-05-14T05:29:51;56;;;33;;
74457;SDS011;62896;51.032;3.712;2023-05-14T05:33:11;56;;;33;;
74457;SDS011;62896;51.032;3.712;2023-05-14T05:36:31;56;;;33;;
74457;SDS011;62896;51.032;3.712;2023-05-14T05:39:51;56;;;33;;
74457;SDS011;62896;51.032;3.712;2023-05-14T05:43:11;56;;;33;;
74457;SDS011;62896;51.032;3.712;2023-05-14T05:46:31;56;;;33;;
74457;SDS011;62896;51.032;3.712;2023-05-14T05:49:51;56;;;33;;
74457;SDS011;62896;51.032;3.712;2023-05-14T05:53:11;36.2;;;24.1;;
74457;SDS011;62896;51.032;3.712;2023-05-14T05:56:31;36.2;;;24.1;;
74457;SDS011;62896;51.032;3.712;2023-05-14T05:59:51;36.2;;;24.1;;
74457;SDS011;62896;51.032;3.712;2023-05-14T06:03:11;36.2;;;24.1;;
74457;SDS011;62896;51.032;3.712;2023-05-14T06:06:31;36.2;;;24.1;;
74457;SDS011;62896;51.032;3.712;2023-05-14T06:09:51;36.2;;;24.1;;
74457;SDS011;62896;51.032;3.712;2023-05-14T06:13:11;36.2;;;24.1;;
74457;SDS011;62896;51.032;3.712;2023-05-14T06:16:31;46.3;;;28.7;;
74457;SDS011;62896;51.032;3.712;2023-05-14T06:19:51;46.3;;;28.7;;
74457;SDS011;62896;51.032;3.712;2023-05-14T06:23:11;46.3;;;28.7;;
74457;SDS011;62896;51.032;3.712;2023-05-14T06:26:31;46.3;;;28.7;;
74457;SDS011;62896;51.032;3.712;2023-05-14T06:29:51;46.3;;;28.7;;
74457;SDS011;62896;51.032;3.712;2023-05-14T06:33:11;46.3;;;28.7;;
74457;SDS011;62896;51.032;3.712;2023-05-14T06:36:31;46.3;;;28.7;;
74457;SDS011;62896;51.032;3.712;2023-05-14T06:39:51;46.3;;;28.7;;
74457;SDS011;62896;51.032;3.712;2023-05-14T06:43:11;35.1;;;24.3;;
74457;SDS011;62896;51.032;3.712;2023-05-14T06:46:31;35.1;;;24.3;;
74457;SDS011;62896;51.032;3.712;2023-05-14T06:49:51;35.1;;;24.3;;
74457;SDS011;62896;51.032;3.712;2023-05-14T06:53:11;35.1;;;24.3;;
74457;SDS011;62896;51.032;3.712;2023-05-14T06:56:31;35.1;;;24.3;;
74457;SDS011;62896;51.032;3.712;2023-05-14T06:59:51;35.1;;;24.3;;
74457;SDS011;62896;51.032;3.712;2023-05-14T07:03:11;35.1;;;24.3;;
74457;SDS011;62896;51.032;3.712;2023-05-14T07:06:31;41.2;;;26.9;;
74457;SDS011;62896;51.032;3.712;2023-05-14T07:09:51;41.2;;;26.9;;
74457;SDS011;62896;51.032;3.712;2023-05-14T07:13:11;41.2;;;26.9;;
74457;SDS011;62896;51.032;3.712;2023-05-14T07:16:31;41.2;;;26.9;;
74457;SDS011;62896;51.032;3.712;2023-05-14T07:19:51;41.2;;;26.9;;
74457;SDS011;62896;51.032;3.712;2023-05-14T07:23:11;41.2;;;26.9;;
74457;SDS011;62896;51.032;3.712;2023-05-14T07:26:31;41.2;;;26.9;;
74457;SDS011;62896;51.032;3.712;2023-05-14T07:29:51;41.2;;;26.9;;
74457;SDS011;62896;51.032;3.712;2023-05-14T07:33:11;38.9;;;25.8;;
74457;SDS011;62896;51.032;3.712;2023-05-14T07:36:31;38.9;;;25.8;;
74457;SDS011;62896;51.032;3.712;2023-05-14T07:39:51;38.9;;;25.8;;
74457;SDS011;62896;51.032;3.712;2023-05-14T07:43:11;38.9;;;25.8;;
74457;SDS011;62896;51.032;3.712;2023-05-14T07:46:31;38.9;;;25.8;;
74457;SDS011;62896;51.032;3.712;2023-05-14T07:49:53;38.9;;;25.8;;
74457;SDS011;62896;51.032;3.712;2023-05-14T07:53:11;38.9;;;25.8;;
74457;SDS011;62896;51.032;3.712;2023-05-14T07:56:31;36.5;;;25.5;;
74457;SDS011;62896;51.032;3.712;2023-05-14T07:59:51;36.5;;;25.5;;
74457;SDS011;62896;51.032;3.712;2023-05-14T08:03:11;36.5;;;25.5;;
74457;SDS011;62896;51.032;3.712;2023-05-14T08:06:31;36.5;;;25.5;;
74457;SDS011;62896;51.032;3.712;2023-05-14T08:09:51;36.5;;;25.5;;
74457;SDS011;62896;51.032;3.712;2023-05-14T08:13:11;36.5;;;25.5;;
74457;SDS011;62896;51.032;3.712;2023-05-14T08:16:31;36.5;;;25.5;;
74457;SDS011;62896;51.032;3.712;2023-05-14T08:19:51;36.5;;;25.5;;
74457;SDS011;62896;51.032;3.712;2023-05-14T08:23:11;32.7;;;24.1;;
74457;SDS011;62896;51.032;3.712;2023-05-14T08:26:31;32.7;;;24.1;;
74457;SDS011;62896;51.032;3.712;2023-05-14T08:29:51;32.7;;;24.1;;
74457;SDS011;62896;51.032;3.712;2023-05-14T08:33:11;32.7;;;24.1;;
74457;SDS011;62896;51.032;3.712;2023-05-14T08:36:31;32.7;;;24.1;;
74457;SDS011;62896;51.032;3.712;2023-05-14T08:39:51;32.7;;;24.1;;
74457;SDS011;62896;51.032;3.712;2023-05-14T08:43:11;32.7;;;24.1;;
74457;SDS011;62896;51.032;3.712;2023-05-14T08:46:31;30.3;;;21.8;;
74457;SDS011;62896;51.032;3.712;2023-05-14T08:49:53;30.3;;;21.8;;
74457;SDS011;62896;51.032;3.712;2023-05-14T08:53:11;30.3;;;21.8;;
74457;SDS011;62896;51.032;3.712;2023-05-14T08:56:31;30.3;;;21.8;;
74457;SDS011;62896;51.032;3.712;2023-05-14T08:59:51;30.3;;;21.8;;
74457;SDS011;62896;51.032;3.712;2023-05-14T09:03:11;30.3;;;21.8;;
74457;SDS011;62896;51.032;3.712;2023-05-14T09:06:31;30.3;;;21.8;;
74457;SDS011;62896;51.032;3.712;2023-05-14T09:09:52;30.3;;;21.8;;
74457;SDS011;62896;51.032;3.712;2023-05-14T09:13:11;22.7;;;18.7;;
74457;SDS011;62896;51.032;3.712;2023-05-14T09:16:31;22.7;;;18.7;;
74457;SDS011;62896;51.032;3.712;2023-05-14T09:19:51;22.7;;;18.7;;
74457;SDS011;62896;51.032;3.712;2023-05-14T09:23:11;22.7;;;18.7;;
74457;SDS011;62896;51.032;3.712;2023-05-14T09:26:32;22.7;;;18.7;;
74457;SDS011;62896;51.032;3.712;2023-05-14T09:29:51;22.7;;;18.7;;
74457;SDS011;62896;51.032;3.712;2023-05-14T09:33:11;22.7;;;18.7;;
74457;SDS011;62896;51.032;3.712;2023-05-14T09:36:32;25.6;;;18.2;;
74457;SDS011;62896;51.032;3.712;2023-05-14T09:39:51;25.6;;;18.2;;
74457;SDS011;62896;51.032;3.712;2023-05-14T09:43:11;25.6;;;18.2;;
74457;SDS011;62896;51.032;3.712;2023-05-14T09:46:31;25.6;;;18.2;;
74457;SDS011;62896;51.032;3.712;2023-05-14T09:49:51;25.6;;;18.2;;
74457;SDS011;62896;51.032;3.712;2023-05-14T09:53:12;25.6;;;18.2;;
74457;SDS011;62896;51.032;3.712;2023-05-14T09:56:31;25.6;;;18.2;;
74457;SDS011;62896;51.032;3.712;2023-05-14T09:59:51;25.6;;;18.2;;
74457;SDS011;62896;51.032;3.712;2023-05-14T10:03:12;22.1;;;15.7;;
74457;SDS011;62896;51.032;3.712;2023-05-14T10:06:32;22.1;;;15.7;;
74457;SDS011;62896;51.032;3.712;2023-05-14T10:09:53;22.1;;;15.7;;
74457;SDS011;62896;51.032;3.712;2023-05-14T10:13:12;22.1;;;15.7;;
74457;SDS011;62896;51.032;3.712;2023-05-14T10:16:32;22.1;;;15.7;;
74457;SDS011;62896;51.032;3.712;2023-05-14T10:19:52;22.1;;;15.7;;
74457;SDS011;62896;51.032;3.712;2023-05-14T10:23:11;22.1;;;15.7;;
74457;SDS011;62896;51.032;3.712;2023-05-14T10:26:32;17.4;;;13.9;;
74457;SDS011;62896;51.032;3.712;2023-05-14T10:29:52;17.4;;;13.9;;
74457;SDS011;62896;51.032;3.712;2023-05-14T10:33:12;17.4;;;13.9;;
74457;SDS011;62896;51.032;3.712;2023-05-14T10:36:31;17.4;;;13.9;;
74457;SDS011;62896;51.032;3.712;2023-05-14T10:39:52;17.4;;;13.9;;
74457;SDS011;62896;51.032;3.712;2023-05-14T10:43:11;17.4;;;13.9;;
74457;SDS011;62896;51.032;3.712;2023-05-14T10:46:31;17.4;;;13.9;;
74457;SDS011;62896;51.032;3.712;2023-05-14T10:49:52;17.4;;;13.9;;
74457;SDS011;62896;51.032;3.712;2023-05-14T10:53:11;19;;;12;;
74457;SDS011;62896;51.032;3.712;2023-05-14T10:56:31;19;;;12;;
74457;SDS011;62896;51.032;3.712;2023-05-14T10:59:52;19;;;12;;
74457;SDS011;62896;51.032;3.712;2023-05-14T11:03:11;19;;;12;;
74457;SDS011;62896;51.032;3.712;2023-05-14T11:06:31;19;;;12;;
74457;SDS011;62896;51.032;3.712;2023-05-14T11:09:52;19;;;12;;
74457;SDS011;62896;51.032;3.712;2023-05-14T11:13:11;19;;;12;;
74457;SDS011;62896;51.032;3.712;2023-05-14T11:16:31;18.7;;;13.2;;
74457;SDS011;62896;51.032;3.712;2023-05-14T11:19:52;18.7;;;13.2;;
74457;SDS011;62896;51.032;3.712;2023-05-14T11:23:11;18.7;;;13.2;;
74457;SDS011;62896;51.032;3.712;2023-05-14T11:26:31;18.7;;;13.2;;
74457;SDS011;62896;51.032;3.712;2023-05-14T11:29:51;18.7;;;13.2;;
74457;SDS011;62896;51.032;3.712;2023-05-14T11:33:11;18.7;;;13.2;;
74457;SDS011;62896;51.032;3.712;2023-05-14T11:36:31;18.7;;;13.2;;
74457;SDS011;62896;51.032;3.712;2023-05-14T11:39:53;18.7;;;13.2;;
74457;SDS011;62896;51.032;3.712;2023-05-14T11:43:11;14.3;;;11.1;;
74457;SDS011;62896;51.032;3.712;2023-05-14T11:46:31;14.3;;;11.1;;
74457;SDS011;62896;51.032;3.712;2023-05-14T11:49:51;14.3;;;11.1;;
74457;SDS011;62896;51.032;3.712;2023-05-14T11:53:15;14.3;;;11.1;;
74457;SDS011;62896;51.032;3.712;2023-05-14T11:56:31;14.3;;;11.1;;
74457;SDS011;62896;51.032;3.712;2023-05-14T11:59:53;14.3;;;11.1;;
74457;SDS011;62896;51.032;3.712;2023-05-14T12:03:11;14.3;;;11.1;;
74457;SDS011;62896;51.032;3.712;2023-05-14T12:06:31;15.4;;;11.4;;
74457;SDS011;62896;51.032;3.712;2023-05-14T12:09:51;15.4;;;11.4;;
74457;SDS011;62896;51.032;3.712;2023-05-14T12:13:13;15.4;;;11.4;;
74457;SDS011;62896;51.032;3.712;2023-05-14T12:16:31;15.4;;;11.4;;
74457;SDS011;62896;51.032;3.712;2023-05-14T12:19:52;15.4;;;11.4;;
74457;SDS011;62896;51.032;3.712;2023-05-14T12:23:11;15.4;;;11.4;;
74457;SDS011;62896;51.032;3.712;2023-05-14T12:26:32;15.4;;;11.4;;
74457;SDS011;62896;51.032;3.712;2023-05-14T12:29:57;15.4;;;11.4;;
74457;SDS011;62896;51.032;3.712;2023-05-14T12:33:12;13.1;;;10.2;;
74457;SDS011;62896;51.032;3.712;2023-05-14T12:36:31;13.1;;;10.2;;
74457;SDS011;62896;51.032;3.712;2023-05-14T12:39:52;13.1;;;10.2;;
74457;SDS011;62896;51.032;3.712;2023-05-14T12:43:11;13.1;;;10.2;;
74457;SDS011;62896;51.032;3.712;2023-05-14T12:46:32;13.1;;;10.2;;
74457;SDS011;62896;51.032;3.712;2023-05-14T12:49:51;13.1;;;10.2;;
74457;SDS011;62896;51.032;3.712;2023-05-14T12:53:11;13.1;;;10.2;;
74457;SDS011;62896;51.032;3.712;2023-05-14T12:56:32;11.9;;;8.9;;
74457;SDS011;62896;51.032;3.712;2023-05-14T12:59:51;11.9;;;8.9;;
74457;SDS011;62896;51.032;3.712;2023-05-14T13:03:12;11.9;;;8.9;;
74457;SDS011;62896;51.032;3.712;2023-05-14T13:06:32;11.9;;;8.9;;
74457;SDS011;62896;51.032;3.712;2023-05-14T13:09:51;11.9;;;8.9;;
74457;SDS011;62896;51.032;3.712;2023-05-14T13:13:13;11.9;;;8.9;;
74457;SDS011;62896;51.032;3.712;2023-05-14T13:16:32;11.9;;;8.9;;
74457;SDS011;62896;51.032;3.712;2023-05-14T13:19:52;11.9;;;8.9;;
74457;SDS011;62896;51.032;3.712;2023-05-14T13:23:12;12.8;;;8.3;;
74457;SDS011;62896;51.032;3.712;2023-05-14T13:26:32;12.8;;;8.3;;
74457;SDS011;62896;51.032;3.712;2023-05-14T13:29:52;12.8;;;8.3;;
74457;SDS011;62896;51.032;3.712;2023-05-14T13:33:12;12.8;;;8.3;;
74457;SDS011;62896;51.032;3.712;2023-05-14T13:36:32;12.8;;;8.3;;
74457;SDS011;62896;51.032;3.712;2023-05-14T13:39:52;12.8;;;8.3;;
74457;SDS011;62896;51.032;3.712;2023-05-14T13:43:12;12.8;;;8.3;;
74457;SDS011;62896;51.032;3.712;2023-05-14T13:46:32;10.1;;;8.4;;
74457;SDS011;62896;51.032;3.712;2023-05-14T13:49:52;10.1;;;8.4;;
74457;SDS011;62896;51.032;3.712;2023-05-14T13:53:12;10.1;;;8.4;;
74457;SDS011;62896;51.032;3.712;2023-05-14T13:56:32;10.1;;;8.4;;
74457;SDS011;62896;51.032;3.712;2023-05-14T13:59:52;10.1;;;8.4;;
74457;SDS011;62896;51.032;3.712;2023-05-14T14:03:12;10.1;;;8.4;;
74457;SDS011;62896;51.032;3.712;2023-05-14T14:06:32;10.1;;;8.4;;
74457;SDS011;62896;51.032;3.712;2023-05-14T14:09:52;10.1;;;8.4;;
74457;SDS011;62896;51.032;3.712;2023-05-14T14:13:12;11.3;;;8.7;;
74457;SDS011;62896;51.032;3.712;2023-05-14T14:16:32;11.3;;;8.7;;
74457;SDS011;62896;51.032;3.712;2023-05-14T14:19:52;11.3;;;8.7;;
74457;SDS011;62896;51.032;3.712;2023-05-14T14:23:12;11.3;;;8.7;;
74457;SDS011;62896;51.032;3.712;2023-05-14T14:26:32;11.3;;;8.7;;
74457;SDS011;62896;51.032;3.712;2023-05-14T14:29:52;11.3;;;8.7;;
74457;SDS011;62896;51.032;3.712;2023-05-14T14:33:12;11.3;;;8.7;;
74457;SDS011;62896;51.032;3.712;2023-05-14T14:36:32;13.9;;;8.7;;
74457;SDS011;62896;51.032;3.712;2023-05-14T14:39:52;13.9;;;8.7;;
74457;SDS011;62896;51.032;3.712;2023-05-14T14:43:12;13.9;;;8.7;;
74457;SDS011;62896;51.032;3.712;2023-05-14T14:46:32;13.9;;;8.7;;
74457;SDS011;62896;51.032;3.712;2023-05-14T14:49:52;13.9;;;8.7;;
74457;SDS011;62896;51.032;3.712;2023-05-14T14:53:12;13.9;;;8.7;;
74457;SDS011;62896;51.032;3.712;2023-05-14T14:56:32;13.9;;;8.7;;
74457;SDS011;62896;51.032;3.712;2023-05-14T14:59:52;13.9;;;8.7;;
74457;SDS011;62896;51.032;3.712;2023-05-14T15:03:12;13.6;;;8.1;;
74457;SDS011;62896;51.032;3.712;2023-05-14T15:06:32;13.6;;;8.1;;
74457;SDS011;62896;51.032;3.712;2023-05-14T15:09:52;13.6;;;8.1;;
74457;SDS011;62896;51.032;3.712;2023-05-14T15:13:12;13.6;;;8.1;;
74457;SDS011;62896;51.032;3.712;2023-05-14T15:16:32;13.6;;;8.1;;
74457;SDS011;62896;51.032;3.712;2023-05-14T15:19:52;13.6;;;8.1;;
74457;SDS011;62896;51.032;3.712;2023-05-14T15:23:12;13.6;;;8.1;;
74457;SDS011;62896;51.032;3.712;2023-05-14T15:26:32;10.9;;;7.8;;
74457;SDS011;62896;51.032;3.712;2023-05-14T15:29:52;10.9;;;7.8;;
74457;SDS011;62896;51.032;3.712;2023-05-14T15:33:12;10.9;;;7.8;;
74457;SDS011;62896;51.032;3.712;2023-05-14T15:36:32;10.9;;;7.8;;
74457;SDS011;62896;51.032;3.712;2023-05-14T15:39:52;10.9;;;7.8;;
74457;SDS011;62896;51.032;3.712;2023-05-14T15:43:12;10.9;;;7.8;;
74457;SDS011;62896;51.032;3.712;2023-05-14T15:46:32;10.9;;;7.8;;
74457;SDS011;62896;51.032;3.712;2023-05-14T15:49:52;10.9;;;7.8;;
74457;SDS011;62896;51.032;3.712;2023-05-14T15:53:12;10.3;;;7.4;;
74457;SDS011;62896;51.032;3.712;2023-05-14T15:56:32;10.3;;;7.4;;
74457;SDS011;62896;51.032;3.712;2023-05-14T15:59:52;10.3;;;7.4;;
74457;SDS011;62896;51.032;3.712;2023-05-14T16:03:12;10.3;;;7.4;;
74457;SDS011;62896;51.032;3.712;2023-05-14T16:06:32;10.3;;;7.4;;
74457;SDS011;62896;51.032;3.712;2023-05-14T16:09:52;10.3;;;7.4;;
74457;SDS011;62896;51.032;3.712;2023-05-14T16:13:12;10.3;;;7.4;;
74457;SDS011;62896;51.032;3.712;2023-05-14T16:16:32;13.8;;;8.6;;
74457;SDS011;62896;51.032;3.712;2023-05-14T16:19:52;13.8;;;8.6;;
74457;SDS011;62896;51.032;3.712;2023-05-14T16:23:12;13.8;;;8.6;;
74457;SDS011;62896;51.032;3.712;2023-05-14T16:26:32;13.8;;;8.6;;
74457;SDS011;62896;51.032;3.712;2023-05-14T16:29:52;13.8;;;8.6;;
74457;SDS011;62896;51.032;3.712;2023-05-14T16:33:12;13.8;;;8.6;;
74457;SDS011;62896;51.032;3.712;2023-05-14T16:36:32;13.8;;;8.6;;
74457;SDS011;62896;51.032;3.712;2023-05-14T16:39:52;13.8;;;8.6;;
74457;SDS011;62896;51.032;3.712;2023-05-14T16:43:12;15.5;;;10.2;;
74457;SDS011;62896;51.032;3.712;2023-05-14T16:46:32;15.5;;;10.2;;
74457;SDS011;62896;51.032;3.712;2023-05-14T16:49:52;15.5;;;10.2;;
74457;SDS011;62896;51.032;3.712;2023-05-14T16:53:12;15.5;;;10.2;;
74457;SDS011;62896;51.032;3.712;2023-05-14T16:56:32;15.5;;;10.2;;
74457;SDS011;62896;51.032;3.712;2023-05-14T16:59:52;15.5;;;10.2;;
74457;SDS011;62896;51.032;3.712;2023-05-14T17:03:12;15.5;;;10.2;;
74457;SDS011;62896;51.032;3.712;2023-05-14T17:06:32;13.8;;;11.2;;
74457;SDS011;62896;51.032;3.712;2023-05-14T17:09:52;13.8;;;11.2;;
74457;SDS011;62896;51.032;3.712;2023-05-14T17:13:12;13.8;;;11.2;;
74457;SDS011;62896;51.032;3.712;2023-05-14T17:16:32;13.8;;;11.2;;
74457;SDS011;62896;51.032;3.712;2023-05-14T17:19:52;13.8;;;11.2;;
74457;SDS011;62896;51.032;3.712;2023-05-14T17:23:12;13.8;;;11.2;;
74457;SDS011;62896;51.032;3.712;2023-05-14T17:26:32;13.8;;;11.2;;
74457;SDS011;62896;51.032;3.712;2023-05-14T17:29:52;13.8;;;11.2;;
74457;SDS011;62896;51.032;3.712;2023-05-14T17:33:12;18.9;;;11.4;;
74457;SDS011;62896;51.032;3.712;2023-05-14T17:36:32;18.9;;;11.4;;
74457;SDS011;62896;51.032;3.712;2023-05-14T17:39:52;18.9;;;11.4;;
74457;SDS011;62896;51.032;3.712;2023-05-14T17:43:12;18.9;;;11.4;;
74457;SDS011;62896;51.032;3.712;2023-05-14T17:46:32;18.9;;;11.4;;
74457;SDS011;62896;51.032;3.712;2023-05-14T17:49:52;18.9;;;11.4;;
74457;SDS011;62896;51.032;3.712;2023-05-14T17:53:12;18.9;;;11.4;;
74457;SDS011;62896;51.032;3.712;2023-05-14T17:56:32;17.3;;;11.4;;
74457;SDS011;62896;51.032;3.712;2023-05-14T17:59:52;17.3;;;11.4;;
74457;SDS011;62896;51.032;3.712;2023-05-14T18:03:12;17.3;;;11.4;;
74457;SDS011;62896;51.032;3.712;2023-05-14T18:06:32;17.3;;;11.4;;
74457;SDS011;62896;51.032;3.712;2023-05-14T18:09:52;17.3;;;11.4;;
74457;SDS011;62896;51.032;3.712;2023-05-14T18:13:12;17.3;;;11.4;;
74457;SDS011;62896;51.032;3.712;2023-05-14T18:16:32;17.3;;;11.4;;
74457;SDS011;62896;51.032;3.712;2023-05-14T18:19:52;17.3;;;11.4;;
74457;SDS011;62896;51.032;3.712;2023-05-14T18:23:12;18.3;;;12.2;;
74457;SDS011;62896;51.032;3.712;2023-05-14T18:26:32;18.3;;;12.2;;
74457;SDS011;62896;51.032;3.712;2023-05-14T18:29:52;18.3;;;12.2;;
74457;SDS011;62896;51.032;3.712;2023-05-14T18:33:12;18.3;;;12.2;;
74457;SDS011;62896;51.032;3.712;2023-05-14T18:36:32;18.3;;;12.2;;
74457;SDS011;62896;51.032;3.712;2023-05-14T18:39:52;18.3;;;12.2;;
74457;SDS011;62896;51.032;3.712;2023-05-14T18:43:12;18.3;;;12.2;;
74457;SDS011;62896;51.032;3.712;2023-05-14T18:46:32;20.2;;;12.3;;
74457;SDS011;62896;51.032;3.712;2023-05-14T18:49:52;20.2;;;12.3;;
74457;SDS011;62896;51.032;3.712;2023-05-14T18:53:12;20.2;;;12.3;;
74457;SDS011;62896;51.032;3.712;2023-05-14T18:56:32;20.2;;;12.3;;
74457;SDS011;62896;51.032;3.712;2023-05-14T18:59:52;20.2;;;12.3;;
74457;SDS011;62896;51.032;3.712;2023-05-14T19:03:12;20.2;;;12.3;;
74457;SDS011;62896;51.032;3.712;2023-05-14T19:06:32;20.2;;;12.3;;
74457;SDS011;62896;51.032;3.712;2023-05-14T19:09:52;20.2;;;12.3;;
74457;SDS011;62896;51.032;3.712;2023-05-14T19:13:12;21.4;;;14.3;;
74457;SDS011;62896;51.032;3.712;2023-05-14T19:16:32;21.4;;;14.3;;
74457;SDS011;62896;51.032;3.712;2023-05-14T19:19:52;21.4;;;14.3;;
74457;SDS011;62896;51.032;3.712;2023-05-14T19:23:12;21.4;;;14.3;;
74457;SDS011;62896;51.032;3.712;2023-05-14T19:26:32;21.4;;;14.3;;
74457;SDS011;62896;51.032;3.712;2023-05-14T19:29:52;21.4;;;14.3;;
74457;SDS011;62896;51.032;3.712;2023-05-14T19:33:12;21.4;;;14.3;;
74457;SDS011;62896;51.032;3.712;2023-05-14T19:36:32;20.6;;;14;;
74457;SDS011;62896;51.032;3.712;2023-05-14T19:39:52;20.6;;;14;;
74457;SDS011;62896;51.032;3.712;2023-05-14T19:43:12;20.6;;;14;;
74457;SDS011;62896;51.032;3.712;2023-05-14T19:46:32;20.6;;;14;;
74457;SDS011;62896;51.032;3.712;2023-05-14T19:49:52;20.6;;;14;;
74457;SDS011;62896;51.032;3.712;2023-05-14T19:53:12;20.6;;;14;;
74457;SDS011;62896;51.032;3.712;2023-05-14T19:56:32;20.6;;;14;;
74457;SDS011;62896;51.032;3.712;2023-05-14T19:59:52;20.6;;;14;;
74457;SDS011;62896;51.032;3.712;2023-05-14T20:03:12;21.3;;;14.5;;
74457;SDS011;62896;51.032;3.712;2023-05-14T20:06:32;21.3;;;14.5;;
74457;SDS011;62896;51.032;3.712;2023-05-14T20:09:52;21.3;;;14.5;;
74457;SDS011;62896;51.032;3.712;2023-05-14T20:13:12;21.3;;;14.5;;